createdAt,value
2019-05-07T00:01:23.220Z,97305.32
2019-05-07T00:03:55.051Z,97297.30
2019-05-07T00:06:26.349Z,97305.38
2019-05-07T00:08:57.744Z,97301.36
2019-05-07T00:11:29.171Z,97294.27
2019-05-07T00:14:03.023Z,97294.61
2019-05-07T00:16:33.740Z,97294.16
2019-05-07T00:19:05.283Z,97290.40
2019-05-07T00:21:36.659Z,97296.08
2019-05-07T00:24:09.926Z,97294.95
2019-05-07T00:26:43.026Z,97289.63
2019-05-07T00:29:14.629Z,97287.51
2019-05-07T00:31:46.330Z,97286.15
2019-05-07T00:34:19.371Z,97291.92
2019-05-07T00:37:02.175Z,97286.38
2019-05-07T00:40:02.535Z,97285.17
2019-05-07T00:42:52.917Z,97289.42
2019-05-07T00:45:30.079Z,97281.65
2019-05-07T00:48:02.934Z,97287.52
2019-05-07T00:50:36.036Z,97284.87
2019-05-07T00:53:07.464Z,97287.19
2019-05-07T00:55:38.938Z,97275.88
2019-05-07T00:58:10.232Z,97276.81
2019-05-07T01:00:42.178Z,97271.38
2019-05-07T01:03:13.745Z,97268.48
2019-05-07T01:05:45.453Z,97275.02
2019-05-07T01:08:16.754Z,97270.52
2019-05-07T01:10:49.243Z,97272.16
2019-05-07T01:13:23.156Z,97270.38
2019-05-07T01:15:53.633Z,97272.11
2019-05-07T01:18:25.039Z,97267.73
2019-05-07T01:20:56.505Z,97270.03
2019-05-07T01:23:27.954Z,97270.95
2019-05-07T01:25:59.327Z,97268.92
2019-05-07T01:28:32.855Z,97269.56
2019-05-07T01:31:03.855Z,97277.44
2019-05-07T01:33:47.525Z,97272.71
2019-05-07T01:36:22.585Z,97268.62
2019-05-07T01:38:54.037Z,97273.70
2019-05-07T01:41:25.404Z,97277.09
2019-05-07T01:43:56.698Z,97268.83
2019-05-07T01:46:28.061Z,97273.33
2019-05-07T01:48:59.775Z,97270.59
2019-05-07T01:51:32.647Z,97264.77
2019-05-07T01:54:05.311Z,97266.64
2019-05-07T01:56:36.803Z,97267.38
2019-05-07T01:59:08.231Z,97259.16
2019-05-07T02:01:39.769Z,97261.16
2019-05-07T02:04:32.540Z,97254.80
2019-05-07T02:07:16.838Z,97263.31
2019-05-07T02:09:56.813Z,97269.55
2019-05-07T02:12:35.176Z,97267.66
2019-05-07T02:15:08.213Z,97260.66
2019-05-07T02:17:39.399Z,97274.11
2019-05-07T02:20:12.932Z,97271.89
2019-05-07T02:22:44.024Z,97265.59
2019-05-07T02:25:15.912Z,97261.23
2019-05-07T02:27:47.086Z,97267.45
2019-05-07T02:30:19.698Z,97268.77
2019-05-07T02:32:53.686Z,97264.33
2019-05-07T02:35:24.355Z,97269.42
2019-05-07T02:38:13.762Z,97255.91
2019-05-07T02:40:49.239Z,97256.09
2019-05-07T02:43:22.835Z,97258.11
2019-05-07T02:46:30.427Z,97257.50
2019-05-07T02:49:05.991Z,97264.19
2019-05-07T02:51:43.739Z,97258.11
2019-05-07T02:54:24.196Z,97253.05
2019-05-07T02:56:54.208Z,97257.86
2019-05-07T02:59:25.872Z,97253.16
2019-05-07T03:01:57.210Z,97264.03
2019-05-07T03:04:28.704Z,97260.17
2019-05-07T03:07:00.131Z,97257.48
2019-05-07T03:09:32.894Z,97250.28
2019-05-07T03:12:04.501Z,97249.47
2019-05-07T03:14:35.950Z,97254.19
2019-05-07T03:17:07.458Z,97253.30
2019-05-07T03:19:43.025Z,97248.41
2019-05-07T03:22:14.083Z,97255.81
2019-05-07T03:24:52.726Z,97256.09
2019-05-07T03:27:23.726Z,97247.11
2019-05-07T03:30:18.231Z,97242.76
2019-05-07T03:32:56.888Z,97241.66
2019-05-07T03:35:38.400Z,97252.94
2019-05-07T03:38:09.826Z,97247.19
2019-05-07T03:40:44.512Z,97252.11
2019-05-07T03:43:14.717Z,97255.21
2019-05-07T03:46:08.817Z,97254.82
2019-05-07T03:48:43.806Z,97254.59
2019-05-07T03:51:13.759Z,97248.36
2019-05-07T03:53:44.936Z,97248.79
2019-05-07T03:56:16.290Z,97239.58
2019-05-07T03:58:47.601Z,97244.72
2019-05-07T04:01:19.181Z,97238.42
2019-05-07T04:03:53.087Z,97245.14
2019-05-07T04:06:23.698Z,97242.81
2019-05-07T04:08:55.016Z,97242.09
2019-05-07T04:11:26.314Z,97238.44
2019-05-07T04:13:57.537Z,97243.88
2019-05-07T04:16:28.885Z,97247.41
2019-05-07T04:19:03.639Z,97251.31
2019-05-07T04:21:34.414Z,97256.93
2019-05-07T04:24:23.552Z,97252.58
2019-05-07T04:27:03.729Z,97246.29
2019-05-07T04:29:35.257Z,97250.49
2019-05-07T04:32:08.612Z,97251.33
2019-05-07T04:34:53.187Z,97249.99
2019-05-07T04:37:25.872Z,97249.86
2019-05-07T04:39:57.060Z,97251.39
2019-05-07T04:42:28.974Z,97255.34
2019-05-07T04:45:00.273Z,97253.41
2019-05-07T04:47:41.583Z,97251.27
2019-05-07T04:50:05.153Z,97256.55
2019-05-07T04:52:37.340Z,97256.11
2019-05-07T04:55:09.331Z,97258.42
2019-05-07T04:57:43.531Z,97253.42
2019-05-07T05:00:14.711Z,97255.20
2019-05-07T05:03:05.021Z,97255.98
2019-05-07T05:05:36.302Z,97253.08
2019-05-07T05:08:07.779Z,97253.73
2019-05-07T05:10:39.136Z,97258.50
2019-05-07T05:13:12.888Z,97258.74
2019-05-07T05:15:43.473Z,97261.66
2019-05-07T05:18:14.867Z,97265.00
2019-05-07T05:21:23.490Z,97262.91
2019-05-07T05:24:01.892Z,97264.91
2019-05-07T05:26:34.270Z,97272.23
2019-05-07T05:29:05.625Z,97268.31
2019-05-07T05:31:37.563Z,97273.24
2019-05-07T05:34:09.656Z,97267.01
2019-05-07T05:36:42.552Z,97264.02
2019-05-07T05:39:14.952Z,97262.91
2019-05-07T05:41:48.102Z,97267.46
2019-05-07T05:44:31.856Z,97269.68
2019-05-07T05:47:02.843Z,97268.67
2019-05-07T05:49:34.461Z,97263.96
2019-05-07T05:52:13.476Z,97267.69
2019-05-07T05:55:11.876Z,97265.28
2019-05-07T05:57:56.090Z,97262.80
2019-05-07T06:00:43.940Z,97264.90
2019-05-07T06:03:32.780Z,97263.47
2019-05-07T06:06:13.885Z,97260.72
2019-05-07T06:09:09.170Z,97263.38
2019-05-07T06:11:58.487Z,97253.83
2019-05-07T06:14:36.742Z,97260.76
2019-05-07T06:17:22.481Z,97261.70
2019-05-07T06:20:03.110Z,97262.84
2019-05-07T06:23:08.517Z,97260.80
2019-05-07T06:25:42.841Z,97259.94
2019-05-07T06:28:14.652Z,97253.02
2019-05-07T06:30:46.058Z,97259.25
2019-05-07T06:33:17.330Z,97259.41
2019-05-07T06:35:48.710Z,97261.19
2019-05-07T06:38:21.994Z,97267.77
2019-05-07T06:41:07.850Z,97265.45
2019-05-07T06:43:44.372Z,97263.31
2019-05-07T06:46:16.177Z,97273.05
2019-05-07T06:48:47.514Z,97266.96
2019-05-07T06:51:18.881Z,97263.27
2019-05-07T06:53:51.839Z,97263.08
2019-05-07T06:56:23.480Z,97260.62
2019-05-07T06:59:08.939Z,97256.03
2019-05-07T07:01:48.988Z,97247.81
2019-05-07T07:04:27.113Z,97254.59
2019-05-07T07:07:26.288Z,97254.05
2019-05-07T07:10:11.994Z,97248.66
2019-05-07T07:12:43.837Z,97247.27
2019-05-07T07:15:15.529Z,97253.56
2019-05-07T07:17:46.952Z,97245.38
2019-05-07T07:20:18.371Z,97241.69
2019-05-07T07:22:51.963Z,97243.61
2019-05-07T07:25:23.074Z,97237.23
2019-05-07T07:27:56.039Z,97236.79
2019-05-07T07:30:49.122Z,97231.17
2019-05-07T07:33:22.520Z,97237.64
2019-05-07T07:35:54.057Z,97232.92
2019-05-07T07:38:35.026Z,97228.60
2019-05-07T07:41:35.219Z,97225.07
2019-05-07T07:44:08.625Z,97220.73
2019-05-07T07:46:42.601Z,97218.14
2019-05-07T07:49:15.137Z,97218.79
2019-05-07T07:51:46.799Z,97221.00
2019-05-07T07:54:18.061Z,97223.92
2019-05-07T07:57:18.739Z,97218.23
2019-05-07T07:59:59.003Z,97217.28
2019-05-07T08:02:42.558Z,97224.95
2019-05-07T08:05:14.247Z,97217.06
2019-05-07T08:07:45.673Z,97223.23
2019-05-07T08:10:17.215Z,97208.65
2019-05-07T08:12:48.996Z,97221.69
2019-05-07T08:15:24.212Z,97210.21
2019-05-07T08:17:54.505Z,97209.11
2019-05-07T08:20:26.915Z,97211.64
2019-05-07T08:22:58.323Z,97213.52
2019-05-07T08:25:48.214Z,97209.20
2019-05-07T08:28:23.293Z,97194.37
2019-05-07T08:31:12.663Z,97187.86
2019-05-07T08:34:02.616Z,97195.33
2019-05-07T08:36:33.901Z,97194.57
2019-05-07T08:39:07.135Z,97193.72
2019-05-07T08:41:38.527Z,97191.46
2019-05-07T08:44:16.255Z,97184.92
2019-05-07T08:47:24.787Z,97188.89
2019-05-07T08:49:56.146Z,97185.33
2019-05-07T08:52:27.781Z,97178.07
2019-05-07T08:54:59.400Z,97178.05
2019-05-07T08:57:31.872Z,97179.03
2019-05-07T09:00:04.681Z,97175.91
2019-05-07T09:02:36.182Z,97182.83
2019-05-07T09:05:09.323Z,97178.09
2019-05-07T09:07:42.559Z,97172.14
2019-05-07T09:10:14.804Z,97175.22
2019-05-07T09:12:45.978Z,97178.12
2019-05-07T09:15:17.798Z,97175.70
2019-05-07T09:17:49.101Z,97164.38
2019-05-07T09:20:22.701Z,97164.02
2019-05-07T09:22:53.926Z,97162.72
2019-05-07T09:25:25.253Z,97163.48
2019-05-07T09:27:56.872Z,97160.27
2019-05-07T09:30:56.141Z,97156.61
2019-05-07T09:33:42.151Z,97150.59
2019-05-07T09:36:22.742Z,97149.57
2019-05-07T09:38:59.010Z,97150.12
2019-05-07T09:41:28.038Z,97145.44
2019-05-07T09:44:00.361Z,97146.66
2019-05-07T09:46:32.757Z,97145.88
2019-05-07T09:49:05.125Z,97145.96
2019-05-07T09:51:36.683Z,97144.58
2019-05-07T09:54:09.226Z,97138.82
2019-05-07T09:56:42.233Z,97135.10
2019-05-07T09:59:13.852Z,97131.30
2019-05-07T10:01:45.346Z,97137.02
2019-05-07T10:04:16.750Z,97126.48
2019-05-07T10:06:48.340Z,97133.75
2019-05-07T10:09:19.689Z,97127.17
2019-05-07T10:12:02.750Z,97123.73
2019-05-07T10:14:34.272Z,97135.45
2019-05-07T10:17:32.716Z,97144.91
2019-05-07T10:20:18.137Z,97120.30
2019-05-07T10:22:39.803Z,97119.85
2019-05-07T10:25:12.255Z,97116.08
2019-05-07T10:27:45.036Z,97106.52
2019-05-07T10:30:17.457Z,97109.14
2019-05-07T10:32:48.854Z,97106.88
2019-05-07T10:35:22.774Z,97105.80
2019-05-07T10:37:53.449Z,97103.16
2019-05-07T10:40:25.367Z,97110.94
2019-05-07T10:42:56.844Z,97101.33
2019-05-07T10:45:47.503Z,97104.45
2019-05-07T10:48:34.750Z,97100.56
2019-05-07T10:51:06.804Z,97093.25
2019-05-07T10:53:38.673Z,97088.66
2019-05-07T10:56:11.760Z,97088.80
2019-05-07T10:58:43.152Z,97092.33
2019-05-07T11:01:16.670Z,97086.29
2019-05-07T11:03:47.985Z,97077.81
2019-05-07T11:06:21.970Z,97086.12
2019-05-07T11:08:52.610Z,97086.36
2019-05-07T11:11:23.940Z,97075.22
2019-05-07T11:13:56.197Z,97068.92
2019-05-07T11:16:32.489Z,97083.48
2019-05-07T11:19:03.980Z,97093.45
2019-05-07T11:21:35.305Z,97083.34
2019-05-07T11:24:06.990Z,97083.05
2019-05-07T11:26:38.559Z,97078.15
2019-05-07T11:29:09.986Z,97075.14
2019-05-07T11:31:42.306Z,97069.94
2019-05-07T11:34:14.052Z,97070.32
2019-05-07T11:36:45.367Z,97066.27
2019-05-07T11:39:16.635Z,97054.67
2019-05-07T11:42:06.047Z,97051.23
2019-05-07T11:44:38.083Z,97043.23
2019-05-07T11:47:28.365Z,97048.31
2019-05-07T11:50:17.456Z,97040.58
2019-05-07T11:52:55.206Z,97041.92
2019-05-07T11:55:26.593Z,97040.87
2019-05-07T11:57:58.393Z,97037.17
2019-05-07T12:00:37.950Z,97035.08
2019-05-07T12:03:09.665Z,97034.03
2019-05-07T12:05:42.254Z,97029.53
2019-05-07T12:08:13.807Z,97025.57
2019-05-07T12:10:45.420Z,97024.31
2019-05-07T12:13:17.804Z,97026.06
2019-05-07T12:15:51.606Z,97020.82
2019-05-07T12:18:23.318Z,97018.50
2019-05-07T12:20:54.676Z,97018.52
2019-05-07T12:23:26.433Z,97019.59
2019-05-07T12:25:57.730Z,97016.43
2019-05-07T12:28:29.041Z,97015.59
2019-05-07T12:31:33.520Z,97015.09
2019-05-07T12:34:24.622Z,97007.11
2019-05-07T12:36:57.283Z,97009.27
2019-05-07T12:39:28.618Z,97010.20
2019-05-07T12:42:00.071Z,96991.59
2019-05-07T12:44:32.051Z,97005.28
2019-05-07T12:47:05.935Z,96992.89
2019-05-07T12:49:37.410Z,96996.06
2019-05-07T12:52:37.382Z,96997.78
2019-05-07T12:55:18.339Z,97000.42
2019-05-07T12:57:51.775Z,96992.09
2019-05-07T13:00:46.999Z,96985.86
2019-05-07T13:03:47.121Z,96989.86
2019-05-07T13:06:18.557Z,96994.05
2019-05-07T13:08:52.188Z,96985.59
2019-05-07T13:11:23.683Z,96983.89
2019-05-07T13:13:55.299Z,96987.09
2019-05-07T13:16:26.626Z,96986.81
2019-05-07T13:18:59.061Z,96979.31
2019-05-07T13:21:31.963Z,96984.77
2019-05-07T13:24:03.958Z,96980.39
2019-05-07T13:26:35.363Z,96977.94
2019-05-07T13:29:07.672Z,96973.72
2019-05-07T13:31:40.204Z,96975.05
2019-05-07T13:34:12.288Z,96969.48
2019-05-07T13:36:47.746Z,96962.18
2019-05-07T13:39:38.861Z,96966.30
2019-05-07T13:42:29.031Z,96961.88
2019-05-07T13:45:26.210Z,96956.06
2019-05-07T13:48:08.004Z,96958.41
2019-05-07T13:50:41.877Z,96957.10
2019-05-07T13:53:13.232Z,96951.98
2019-05-07T13:55:44.857Z,96949.91
2019-05-07T13:58:16.566Z,96949.39
2019-05-07T14:01:15.945Z,96949.27
2019-05-07T14:03:47.725Z,96940.39
2019-05-07T14:06:53.478Z,96936.54
2019-05-07T14:09:25.824Z,96940.08
2019-05-07T14:11:57.502Z,96922.48
2019-05-07T14:14:29.304Z,96936.65
2019-05-07T14:17:02.307Z,96926.87
2019-05-07T14:19:33.999Z,96921.84
2019-05-07T14:22:15.431Z,96917.67
2019-05-07T14:24:38.896Z,96926.67
2019-05-07T14:27:10.259Z,96919.98
2019-05-07T14:29:42.476Z,96927.59
2019-05-07T14:32:32.780Z,96918.20
2019-05-07T14:35:23.779Z,96921.41
2019-05-07T14:38:08.205Z,96915.75
2019-05-07T14:40:39.716Z,96910.67
2019-05-07T14:43:21.964Z,96908.87
2019-05-07T14:45:53.824Z,96910.46
2019-05-07T14:48:25.614Z,96917.02
2019-05-07T14:50:57.062Z,96916.67
2019-05-07T14:53:28.457Z,96919.48
2019-05-07T14:56:00.264Z,96914.67
2019-05-07T14:58:32.012Z,96908.23
2019-05-07T15:01:03.615Z,96912.31
2019-05-07T15:03:35.016Z,96910.08
2019-05-07T15:06:06.553Z,96913.75
2019-05-07T15:08:38.217Z,96912.83
2019-05-07T15:11:10.224Z,96905.30
2019-05-07T15:13:42.789Z,96909.88
2019-05-07T15:16:15.358Z,96904.80
2019-05-07T15:19:04.149Z,96906.97
2019-05-07T15:21:35.648Z,96901.85
2019-05-07T15:24:07.050Z,96900.28
2019-05-07T15:26:39.097Z,96898.72
2019-05-07T15:29:13.613Z,96899.48
2019-05-07T15:32:04.693Z,96902.61
2019-05-07T15:34:36.054Z,96899.23
2019-05-07T15:37:08.438Z,96900.20
2019-05-07T15:39:42.035Z,96896.91
2019-05-07T15:42:12.977Z,96895.95
2019-05-07T15:44:44.464Z,96891.35
2019-05-07T15:47:22.281Z,96895.92
2019-05-07T15:49:53.614Z,96887.67
2019-05-07T15:52:58.546Z,96891.77
2019-05-07T15:55:26.157Z,96894.47
2019-05-07T15:57:58.220Z,96896.31
2019-05-07T16:00:33.310Z,96891.60
2019-05-07T16:03:09.299Z,96888.63
2019-05-07T16:05:42.472Z,96894.67
2019-05-07T16:08:15.545Z,96887.94
2019-05-07T16:10:46.881Z,96880.09
2019-05-07T16:13:23.280Z,96876.16
2019-05-07T16:15:54.606Z,96880.36
2019-05-07T16:18:32.657Z,96883.76
2019-05-07T16:21:04.936Z,96877.00
2019-05-07T16:23:36.616Z,96878.45
2019-05-07T16:26:07.860Z,96878.73
2019-05-07T16:28:39.052Z,96874.96
2019-05-07T16:31:10.599Z,96871.72
2019-05-07T16:33:43.021Z,96871.83
2019-05-07T16:36:23.673Z,96868.34
2019-05-07T16:38:56.503Z,96868.52
2019-05-07T16:41:31.637Z,96865.42
2019-05-07T16:44:03.104Z,96868.92
2019-05-07T16:46:34.871Z,96865.12
2019-05-07T16:49:06.522Z,96868.73
2019-05-07T16:51:38.500Z,96866.44
2019-05-07T16:54:12.197Z,96860.00
2019-05-07T16:57:03.101Z,96852.02
2019-05-07T16:59:34.701Z,96858.64
2019-05-07T17:02:13.587Z,96856.06
2019-05-07T17:05:12.357Z,96849.98
2019-05-07T17:07:52.856Z,96843.00
2019-05-07T17:10:25.347Z,96841.77
2019-05-07T17:12:57.406Z,96831.87
2019-05-07T17:15:31.639Z,96834.52
2019-05-07T17:18:04.421Z,96842.81
2019-05-07T17:20:36.810Z,96839.95
2019-05-07T17:23:08.934Z,96842.62
2019-05-07T17:25:42.781Z,96835.38
2019-05-07T17:28:14.676Z,96847.53
2019-05-07T17:30:47.387Z,96835.55
2019-05-07T17:33:19.967Z,96845.50
2019-05-07T17:35:51.980Z,96845.95
2019-05-07T17:38:24.192Z,96848.10
2019-05-07T17:41:09.675Z,96850.66
2019-05-07T17:43:29.059Z,96838.17
2019-05-07T17:46:02.791Z,96845.89
2019-05-07T17:51:38.513Z,96842.84
2019-05-07T17:54:12.866Z,96834.20
2019-05-07T17:56:46.226Z,96835.45
2019-05-07T17:59:17.797Z,96837.19
2019-05-07T18:02:02.437Z,96840.16
2019-05-07T18:04:48.560Z,96838.33
2019-05-07T18:07:12.018Z,96839.52
2019-05-07T18:09:43.375Z,96844.63
2019-05-07T18:12:14.746Z,96837.30
2019-05-07T18:14:46.141Z,96838.61
2019-05-07T18:17:35.031Z,96840.29
2019-05-07T18:20:08.019Z,96837.72
2019-05-07T18:22:41.117Z,96837.27
2019-05-07T18:25:12.580Z,96837.66
2019-05-07T18:27:44.944Z,96829.94
2019-05-07T18:30:16.484Z,96825.66
2019-05-07T18:32:53.648Z,96826.91
2019-05-07T18:35:24.997Z,96826.44
2019-05-07T18:37:56.290Z,96832.78
2019-05-07T18:40:27.500Z,96825.41
2019-05-07T18:43:02.954Z,96821.87
2019-05-07T18:45:33.651Z,96828.68
2019-05-07T18:48:05.209Z,96824.30
2019-05-07T18:50:36.703Z,96824.17
2019-05-07T18:53:08.300Z,96823.19
2019-05-07T18:55:41.925Z,96820.69
2019-05-07T18:58:13.434Z,96823.64
2019-05-07T19:00:49.063Z,96821.44
2019-05-07T19:03:21.851Z,96828.97
2019-05-07T19:05:53.366Z,96822.61
2019-05-07T19:08:24.727Z,96827.18
2019-05-07T19:10:56.269Z,96824.44
2019-05-07T19:13:27.777Z,96818.73
2019-05-07T19:16:00.573Z,96820.41
2019-05-07T19:18:32.371Z,96819.12
2019-05-07T19:21:06.841Z,96816.45
2019-05-07T19:23:38.436Z,96821.98
2019-05-07T19:26:09.879Z,96820.70
2019-05-07T19:28:41.132Z,96826.45
2019-05-07T19:31:12.635Z,96828.70
2019-05-07T19:33:43.971Z,96836.19
2019-05-07T19:36:15.512Z,96833.88
2019-05-07T19:38:46.702Z,96829.01
2019-05-07T19:41:17.958Z,96833.56
2019-05-07T19:43:52.613Z,96824.13
2019-05-07T19:46:23.773Z,96832.03
2019-05-07T19:48:55.070Z,96836.16
2019-05-07T19:51:26.418Z,96836.37
2019-05-07T19:53:58.000Z,96834.08
2019-05-07T19:56:29.416Z,96832.41
2019-05-07T19:59:00.646Z,96830.23
2019-05-07T20:01:45.789Z,96823.43
2019-05-07T20:04:17.599Z,96822.07
2019-05-07T20:06:49.069Z,96821.11
2019-05-07T20:09:24.336Z,96821.75
2019-05-07T20:11:55.818Z,96825.70
2019-05-07T20:14:26.981Z,96824.19
2019-05-07T20:16:58.375Z,96832.00
2019-05-07T20:19:32.136Z,96818.94
2019-05-07T20:22:02.974Z,96813.64
2019-05-07T20:24:35.359Z,96815.23
2019-05-07T20:27:07.105Z,96816.66
2019-05-07T20:29:38.603Z,96809.41
2019-05-07T20:32:10.720Z,96808.14
2019-05-07T20:34:42.315Z,96810.29
2019-05-07T20:37:13.585Z,96807.31
2019-05-07T20:39:44.949Z,96804.19
2019-05-07T20:42:16.519Z,96807.06
2019-05-07T20:44:47.972Z,96812.28
2019-05-07T20:47:21.866Z,96811.48
2019-05-07T20:49:52.569Z,96812.28
2019-05-07T20:52:24.102Z,96818.04
2019-05-07T20:55:04.330Z,96813.70
2019-05-07T20:57:38.500Z,96820.11
2019-05-07T21:00:18.813Z,96806.74
2019-05-07T21:03:09.127Z,96805.81
2019-05-07T21:05:42.144Z,96799.68
2019-05-07T21:08:13.405Z,96799.58
2019-05-07T21:10:44.858Z,96806.38
2019-05-07T21:13:27.481Z,96797.41
2019-05-07T21:15:49.431Z,96793.16
2019-05-07T21:18:23.232Z,96792.20
2019-05-07T21:20:54.770Z,96796.06
2019-05-07T21:23:26.302Z,96794.78
2019-05-07T21:25:57.672Z,96796.87
2019-05-07T21:28:28.961Z,96786.53
2019-05-07T21:31:02.578Z,96783.09
2019-05-07T21:33:33.894Z,96789.97
2019-05-07T21:36:05.316Z,96794.11
2019-05-07T21:38:36.567Z,96773.17
2019-05-07T21:41:07.759Z,96783.87
2019-05-07T21:43:42.240Z,96777.06
2019-05-07T21:46:13.332Z,96777.08
2019-05-07T21:48:44.989Z,96777.02
2019-05-07T21:51:16.256Z,96776.62
2019-05-07T21:54:00.493Z,96774.06
2019-05-07T21:56:45.058Z,96775.00
2019-05-07T21:59:19.005Z,96772.91
2019-05-07T22:01:53.615Z,96768.61
2019-05-07T22:04:24.906Z,96775.41
2019-05-07T22:06:56.560Z,96766.38
2019-05-07T22:09:27.966Z,96769.80
2019-05-07T22:11:59.363Z,96767.73
2019-05-07T22:14:32.669Z,96768.58
2019-05-07T22:17:05.729Z,96777.91
2019-05-07T22:19:37.023Z,96771.33
2019-05-07T22:22:08.313Z,96766.34
2019-05-07T22:24:42.557Z,96763.28
2019-05-07T22:27:13.902Z,96760.93
2019-05-07T22:29:45.073Z,96759.33
2019-05-07T22:32:25.483Z,96754.20
2019-05-07T22:35:02.776Z,96741.47
2019-05-07T22:37:35.872Z,96735.09
2019-05-07T22:40:12.236Z,96737.16
2019-05-07T22:42:45.167Z,96721.89
2019-05-07T22:45:16.652Z,96726.86
2019-05-07T22:47:48.083Z,96727.71
2019-05-07T22:50:19.327Z,96715.94
2019-05-07T22:52:52.546Z,96716.76
2019-05-07T22:55:23.649Z,96710.83
2019-05-07T22:58:23.004Z,96715.47
2019-05-07T23:00:59.576Z,96718.59
2019-05-07T23:03:32.300Z,96712.69
2019-05-07T23:06:07.653Z,96714.27
2019-05-07T23:08:42.586Z,96715.47
2019-05-07T23:11:13.954Z,96714.50
2019-05-07T23:13:45.135Z,96715.63
2019-05-07T23:16:16.383Z,96712.91
2019-05-07T23:18:47.642Z,96709.79
2019-05-07T23:21:18.888Z,96713.44
2019-05-07T23:24:02.137Z,96705.67
2019-05-07T23:26:47.006Z,96704.72
2019-05-07T23:29:06.552Z,96705.98
2019-05-07T23:31:37.925Z,96702.88
2019-05-07T23:34:09.257Z,96697.27
2019-05-07T23:36:42.191Z,96705.66
2019-05-07T23:39:15.095Z,96699.50
2019-05-07T23:42:02.136Z,96694.42
2019-05-07T23:44:33.124Z,96695.98
2019-05-07T23:47:04.440Z,96688.63
2019-05-07T23:49:35.717Z,96692.70
2019-05-07T23:52:07.401Z,96683.44
2019-05-07T23:54:38.677Z,96686.07
2019-05-07T23:57:14.926Z,96683.13
2019-05-07T23:59:43.546Z,96672.63
